sensor_id;sensor_type;location;lat;lon;timestamp;P1;durP1;ratioP1;P2;durP2;ratioP2
7941;SDS011;4016;50.758;7.150;2022-11-04T00:02:39;0.70;;;0.70;;
7941;SDS011;4016;50.758;7.150;2022-11-04T00:07:39;1.00;;;0.93;;
7941;SDS011;4016;50.758;7.150;2022-11-04T00:12:58;0.80;;;0.67;;
7941;SDS011;4016;50.758;7.150;2022-11-04T00:17:58;0.60;;;0.60;;
7941;SDS011;4016;50.758;7.150;2022-11-04T00:22:59;0.80;;;0.80;;
7941;SDS011;4016;50.758;7.150;2022-11-04T00:28:18;1.20;;;0.90;;
7941;SDS011;4016;50.758;7.150;2022-11-04T00:33:37;0.87;;;0.87;;
7941;SDS011;4016;50.758;7.150;2022-11-04T00:38:38;1.40;;;1.30;;
7941;SDS011;4016;50.758;7.150;2022-11-04T00:43:38;3.33;;;1.37;;
7941;SDS011;4016;50.758;7.150;2022-11-04T00:48:38;1.70;;;1.60;;
7941;SDS011;4016;50.758;7.150;2022-11-04T00:53:39;1.43;;;1.37;;
7941;SDS011;4016;50.758;7.150;2022-11-04T00:58:39;1.23;;;1.23;;
7941;SDS011;4016;50.758;7.150;2022-11-04T01:03:39;0.93;;;0.93;;
7941;SDS011;4016;50.758;7.150;2022-11-04T01:08:40;1.83;;;1.73;;
7941;SDS011;4016;50.758;7.150;2022-11-04T01:13:40;1.10;;;1.10;;
7941;SDS011;4016;50.758;7.150;2022-11-04T01:18:41;2.10;;;1.50;;
7941;SDS011;4016;50.758;7.150;2022-11-04T01:23:42;0.80;;;0.80;;
7941;SDS011;4016;50.758;7.150;2022-11-04T01:28:43;0.87;;;0.87;;
7941;SDS011;4016;50.758;7.150;2022-11-04T01:33:44;1.23;;;1.13;;
7941;SDS011;4016;50.758;7.150;2022-11-04T01:38:45;0.80;;;0.80;;
7941;SDS011;4016;50.758;7.150;2022-11-04T01:49:00;1.00;;;1.00;;
7941;SDS011;4016;50.758;7.150;2022-11-04T01:54:22;2.20;;;0.93;;
7941;SDS011;4016;50.758;7.150;2022-11-04T01:59:24;2.30;;;1.23;;
7941;SDS011;4016;50.758;7.150;2022-11-04T02:04:29;0.83;;;0.83;;
7941;SDS011;4016;50.758;7.150;2022-11-04T02:09:30;0.97;;;0.73;;
7941;SDS011;4016;50.758;7.150;2022-11-04T02:14:31;1.70;;;1.40;;
7941;SDS011;4016;50.758;7.150;2022-11-04T02:19:38;1.33;;;1.23;;
7941;SDS011;4016;50.758;7.150;2022-11-04T02:30:45;1.77;;;0.67;;
7941;SDS011;4016;50.758;7.150;2022-11-04T02:51:26;1.63;;;0.87;;
7941;SDS011;4016;50.758;7.150;2022-11-04T02:56:30;2.00;;;1.53;;
7941;SDS011;4016;50.758;7.150;2022-11-04T03:01:35;1.47;;;1.17;;
7941;SDS011;4016;50.758;7.150;2022-11-04T03:06:41;1.17;;;1.17;;
7941;SDS011;4016;50.758;7.150;2022-11-04T03:11:44;1.57;;;1.27;;
7941;SDS011;4016;50.758;7.150;2022-11-04T03:16:52;1.07;;;1.07;;
7941;SDS011;4016;50.758;7.150;2022-11-04T03:21:58;3.00;;;1.50;;
7941;SDS011;4016;50.758;7.150;2022-11-04T03:27:09;1.33;;;1.23;;
7941;SDS011;4016;50.758;7.150;2022-11-04T03:37:23;1.20;;;1.10;;
7941;SDS011;4016;50.758;7.150;2022-11-04T03:42:23;1.50;;;1.40;;
7941;SDS011;4016;50.758;7.150;2022-11-04T03:47:26;3.07;;;1.30;;
7941;SDS011;4016;50.758;7.150;2022-11-04T03:52:28;0.77;;;0.77;;
7941;SDS011;4016;50.758;7.150;2022-11-04T04:08:14;2.80;;;0.70;;
7941;SDS011;4016;50.758;7.150;2022-11-04T04:13:30;1.07;;;1.00;;
7941;SDS011;4016;50.758;7.150;2022-11-04T04:23:49;1.23;;;1.13;;
7941;SDS011;4016;50.758;7.150;2022-11-04T04:29:10;1.50;;;1.13;;
7941;SDS011;4016;50.758;7.150;2022-11-04T04:34:11;1.43;;;1.10;;
7941;SDS011;4016;50.758;7.150;2022-11-04T04:39:11;1.00;;;0.90;;
7941;SDS011;4016;50.758;7.150;2022-11-04T04:44:34;0.87;;;0.87;;
7941;SDS011;4016;50.758;7.150;2022-11-04T04:49:54;1.90;;;1.67;;
7941;SDS011;4016;50.758;7.150;2022-11-04T04:54:56;1.27;;;1.17;;
7941;SDS011;4016;50.758;7.150;2022-11-04T04:59:57;1.53;;;1.43;;
7941;SDS011;4016;50.758;7.150;2022-11-04T05:04:57;3.37;;;1.30;;
7941;SDS011;4016;50.758;7.150;2022-11-04T05:09:58;2.00;;;1.90;;
7941;SDS011;4016;50.758;7.150;2022-11-04T05:14:58;1.87;;;1.63;;
7941;SDS011;4016;50.758;7.150;2022-11-04T05:19:58;2.17;;;1.93;;
7941;SDS011;4016;50.758;7.150;2022-11-04T05:24:59;4.87;;;3.67;;
7941;SDS011;4016;50.758;7.150;2022-11-04T05:29:59;5.83;;;3.50;;
7941;SDS011;4016;50.758;7.150;2022-11-04T05:35:00;6.07;;;2.87;;
7941;SDS011;4016;50.758;7.150;2022-11-04T05:40:00;3.17;;;2.80;;
7941;SDS011;4016;50.758;7.150;2022-11-04T05:45:00;3.80;;;2.67;;
7941;SDS011;4016;50.758;7.150;2022-11-04T05:50:01;2.30;;;2.10;;
7941;SDS011;4016;50.758;7.150;2022-11-04T05:55:01;1.97;;;1.83;;
7941;SDS011;4016;50.758;7.150;2022-11-04T06:00:02;1.40;;;1.30;;
7941;SDS011;4016;50.758;7.150;2022-11-04T06:05:03;1.60;;;1.50;;
7941;SDS011;4016;50.758;7.150;2022-11-04T06:10:03;2.40;;;2.20;;
7941;SDS011;4016;50.758;7.150;2022-11-04T06:15:04;4.00;;;2.90;;
7941;SDS011;4016;50.758;7.150;2022-11-04T06:20:05;2.83;;;2.30;;
7941;SDS011;4016;50.758;7.150;2022-11-04T06:25:06;3.27;;;2.20;;
7941;SDS011;4016;50.758;7.150;2022-11-04T06:30:07;3.20;;;1.87;;
7941;SDS011;4016;50.758;7.150;2022-11-04T06:35:08;1.90;;;1.80;;
7941;SDS011;4016;50.758;7.150;2022-11-04T06:40:08;3.03;;;2.30;;
7941;SDS011;4016;50.758;7.150;2022-11-04T06:45:10;2.80;;;2.60;;
7941;SDS011;4016;50.758;7.150;2022-11-04T06:50:11;2.37;;;2.17;;
7941;SDS011;4016;50.758;7.150;2022-11-04T06:55:11;2.23;;;2.03;;
7941;SDS011;4016;50.758;7.150;2022-11-04T07:00:12;2.73;;;2.53;;
7941;SDS011;4016;50.758;7.150;2022-11-04T07:05:12;2.77;;;2.53;;
7941;SDS011;4016;50.758;7.150;2022-11-04T07:10:13;2.50;;;1.77;;
7941;SDS011;4016;50.758;7.150;2022-11-04T07:15:14;1.97;;;1.87;;
7941;SDS011;4016;50.758;7.150;2022-11-04T07:20:14;1.97;;;1.80;;
7941;SDS011;4016;50.758;7.150;2022-11-04T07:25:15;2.37;;;2.17;;
7941;SDS011;4016;50.758;7.150;2022-11-04T07:30:15;4.87;;;3.07;;
7941;SDS011;4016;50.758;7.150;2022-11-04T07:35:17;2.90;;;2.70;;
7941;SDS011;4016;50.758;7.150;2022-11-04T07:40:18;3.87;;;2.70;;
7941;SDS011;4016;50.758;7.150;2022-11-04T07:45:18;5.27;;;2.67;;
7941;SDS011;4016;50.758;7.150;2022-11-04T07:50:18;2.03;;;1.93;;
7941;SDS011;4016;50.758;7.150;2022-11-04T07:55:19;2.10;;;2.00;;
7941;SDS011;4016;50.758;7.150;2022-11-04T08:00:19;4.70;;;2.60;;
7941;SDS011;4016;50.758;7.150;2022-11-04T08:05:20;2.87;;;2.50;;
7941;SDS011;4016;50.758;7.150;2022-11-04T08:10:20;3.50;;;3.00;;
7941;SDS011;4016;50.758;7.150;2022-11-04T08:15:21;3.23;;;2.97;;
7941;SDS011;4016;50.758;7.150;2022-11-04T08:20:21;3.20;;;2.53;;
7941;SDS011;4016;50.758;7.150;2022-11-04T08:25:22;5.50;;;3.20;;
7941;SDS011;4016;50.758;7.150;2022-11-04T08:30:22;3.30;;;2.70;;
7941;SDS011;4016;50.758;7.150;2022-11-04T08:35:22;3.07;;;2.70;;
7941;SDS011;4016;50.758;7.150;2022-11-04T08:40:23;4.07;;;3.20;;
7941;SDS011;4016;50.758;7.150;2022-11-04T08:45:23;5.10;;;3.30;;
7941;SDS011;4016;50.758;7.150;2022-11-04T08:50:24;5.70;;;3.93;;
7941;SDS011;4016;50.758;7.150;2022-11-04T08:55:30;4.13;;;3.40;;
7941;SDS011;4016;50.758;7.150;2022-11-04T09:00:31;3.53;;;3.10;;
7941;SDS011;4016;50.758;7.150;2022-11-04T09:05:32;5.33;;;3.70;;
7941;SDS011;4016;50.758;7.150;2022-11-04T09:10:33;8.03;;;6.80;;
7941;SDS011;4016;50.758;7.150;2022-11-04T09:15:33;6.43;;;3.53;;
7941;SDS011;4016;50.758;7.150;2022-11-04T09:20:34;3.87;;;3.10;;
7941;SDS011;4016;50.758;7.150;2022-11-04T09:25:37;3.23;;;2.70;;
7941;SDS011;4016;50.758;7.150;2022-11-04T09:30:37;3.50;;;2.93;;
7941;SDS011;4016;50.758;7.150;2022-11-04T09:35:38;4.23;;;2.60;;
7941;SDS011;4016;50.758;7.150;2022-11-04T09:40:38;3.63;;;1.83;;
7941;SDS011;4016;50.758;7.150;2022-11-04T09:45:39;2.53;;;2.30;;
7941;SDS011;4016;50.758;7.150;2022-11-04T09:50:46;4.47;;;2.43;;
7941;SDS011;4016;50.758;7.150;2022-11-04T09:55:54;3.03;;;2.00;;
7941;SDS011;4016;50.758;7.150;2022-11-04T10:01:02;4.70;;;2.03;;
7941;SDS011;4016;50.758;7.150;2022-11-04T10:11:38;3.97;;;1.97;;
7941;SDS011;4016;50.758;7.150;2022-11-04T10:16:53;2.00;;;1.77;;
7941;SDS011;4016;50.758;7.150;2022-11-04T10:22:33;5.43;;;2.50;;
7941;SDS011;4016;50.758;7.150;2022-11-04T10:27:51;4.03;;;2.13;;
7941;SDS011;4016;50.758;7.150;2022-11-04T10:43:13;2.37;;;2.17;;
7941;SDS011;4016;50.758;7.150;2022-11-04T10:48:20;2.97;;;1.67;;
7941;SDS011;4016;50.758;7.150;2022-11-04T10:53:27;3.37;;;2.07;;
7941;SDS011;4016;50.758;7.150;2022-11-04T10:58:30;3.43;;;1.60;;
7941;SDS011;4016;50.758;7.150;2022-11-04T11:03:34;2.03;;;1.83;;
7941;SDS011;4016;50.758;7.150;2022-11-04T11:08:34;2.47;;;1.90;;
7941;SDS011;4016;50.758;7.150;2022-11-04T11:13:37;2.53;;;1.57;;
7941;SDS011;4016;50.758;7.150;2022-11-04T11:18:42;1.87;;;1.70;;
7941;SDS011;4016;50.758;7.150;2022-11-04T11:23:46;3.90;;;1.90;;
7941;SDS011;4016;50.758;7.150;2022-11-04T11:28:50;2.87;;;1.93;;
7941;SDS011;4016;50.758;7.150;2022-11-04T11:33:56;1.50;;;1.40;;
7941;SDS011;4016;50.758;7.150;2022-11-04T11:44:26;1.50;;;1.40;;
7941;SDS011;4016;50.758;7.150;2022-11-04T11:49:43;2.20;;;1.47;;
7941;SDS011;4016;50.758;7.150;2022-11-04T11:54:44;6.90;;;1.90;;
7941;SDS011;4016;50.758;7.150;2022-11-04T11:59:53;4.17;;;1.93;;
7941;SDS011;4016;50.758;7.150;2022-11-04T12:05:01;1.50;;;1.40;;
7941;SDS011;4016;50.758;7.150;2022-11-04T12:10:04;1.77;;;1.67;;
7941;SDS011;4016;50.758;7.150;2022-11-04T12:36:39;2.20;;;1.43;;
7941;SDS011;4016;50.758;7.150;2022-11-04T12:42:23;1.80;;;1.50;;
7941;SDS011;4016;50.758;7.150;2022-11-04T12:47:42;1.93;;;1.57;;
7941;SDS011;4016;50.758;7.150;2022-11-04T13:03:15;2.03;;;1.60;;
7941;SDS011;4016;50.758;7.150;2022-11-04T13:19:29;1.67;;;1.57;;
7941;SDS011;4016;50.758;7.150;2022-11-04T13:24:37;2.80;;;1.50;;
7941;SDS011;4016;50.758;7.150;2022-11-04T13:29:39;1.40;;;1.30;;
7941;SDS011;4016;50.758;7.150;2022-11-04T13:40:21;1.87;;;1.40;;
7941;SDS011;4016;50.758;7.150;2022-11-04T13:45:26;1.40;;;1.30;;
7941;SDS011;4016;50.758;7.150;2022-11-04T13:55:47;1.60;;;1.50;;
7941;SDS011;4016;50.758;7.150;2022-11-04T14:06:09;2.43;;;1.93;;
7941;SDS011;4016;50.758;7.150;2022-11-04T14:11:10;1.60;;;1.20;;
7941;SDS011;4016;50.758;7.150;2022-11-04T14:21:24;3.17;;;2.77;;
7941;SDS011;4016;50.758;7.150;2022-11-04T14:26:27;1.97;;;1.87;;
7941;SDS011;4016;50.758;7.150;2022-11-04T14:31:40;4.03;;;1.77;;
7941;SDS011;4016;50.758;7.150;2022-11-04T14:36:43;1.77;;;1.67;;
7941;SDS011;4016;50.758;7.150;2022-11-04T14:41:57;2.07;;;1.93;;
7941;SDS011;4016;50.758;7.150;2022-11-04T14:46:58;1.70;;;1.60;;
7941;SDS011;4016;50.758;7.150;2022-11-04T14:52:16;1.83;;;1.70;;
7941;SDS011;4016;50.758;7.150;2022-11-04T14:57:20;3.53;;;1.93;;
7941;SDS011;4016;50.758;7.150;2022-11-04T15:02:23;1.23;;;1.13;;
7941;SDS011;4016;50.758;7.150;2022-11-04T15:07:38;1.80;;;1.70;;
7941;SDS011;4016;50.758;7.150;2022-11-04T15:12:42;1.70;;;1.60;;
7941;SDS011;4016;50.758;7.150;2022-11-04T15:17:49;1.63;;;1.53;;
7941;SDS011;4016;50.758;7.150;2022-11-04T15:22:51;1.57;;;1.47;;
7941;SDS011;4016;50.758;7.150;2022-11-04T15:27:54;4.30;;;3.23;;
7941;SDS011;4016;50.758;7.150;2022-11-04T15:32:56;5.60;;;2.70;;
7941;SDS011;4016;50.758;7.150;2022-11-04T15:37:59;3.23;;;2.07;;
7941;SDS011;4016;50.758;7.150;2022-11-04T15:43:01;4.13;;;2.20;;
7941;SDS011;4016;50.758;7.150;2022-11-04T15:53:21;3.40;;;2.30;;
7941;SDS011;4016;50.758;7.150;2022-11-04T15:58:22;7.30;;;4.80;;
7941;SDS011;4016;50.758;7.150;2022-11-04T16:03:24;5.07;;;4.00;;
7941;SDS011;4016;50.758;7.150;2022-11-04T16:08:26;2.47;;;2.27;;
7941;SDS011;4016;50.758;7.150;2022-11-04T16:13:27;3.00;;;2.67;;
7941;SDS011;4016;50.758;7.150;2022-11-04T16:18:31;2.83;;;2.20;;
7941;SDS011;4016;50.758;7.150;2022-11-04T16:24:37;2.13;;;1.97;;
7941;SDS011;4016;50.758;7.150;2022-11-04T16:29:25;2.30;;;2.20;;
7941;SDS011;4016;50.758;7.150;2022-11-04T16:34:28;2.03;;;1.90;;
7941;SDS011;4016;50.758;7.150;2022-11-04T16:39:28;5.00;;;2.90;;
7941;SDS011;4016;50.758;7.150;2022-11-04T16:44:29;3.17;;;2.87;;
7941;SDS011;4016;50.758;7.150;2022-11-04T16:49:31;2.90;;;2.63;;
7941;SDS011;4016;50.758;7.150;2022-11-04T16:54:31;3.40;;;2.63;;
7941;SDS011;4016;50.758;7.150;2022-11-04T16:59:32;3.60;;;2.90;;
7941;SDS011;4016;50.758;7.150;2022-11-04T17:04:32;5.40;;;4.23;;
7941;SDS011;4016;50.758;7.150;2022-11-04T17:09:32;5.30;;;3.20;;
7941;SDS011;4016;50.758;7.150;2022-11-04T17:14:33;3.73;;;3.37;;
7941;SDS011;4016;50.758;7.150;2022-11-04T17:19:34;3.60;;;3.30;;
7941;SDS011;4016;50.758;7.150;2022-11-04T17:24:34;3.60;;;3.30;;
7941;SDS011;4016;50.758;7.150;2022-11-04T17:29:34;3.90;;;3.43;;
7941;SDS011;4016;50.758;7.150;2022-11-04T17:34:36;4.73;;;3.37;;
7941;SDS011;4016;50.758;7.150;2022-11-04T17:39:36;6.80;;;4.73;;
7941;SDS011;4016;50.758;7.150;2022-11-04T17:44:37;5.67;;;4.40;;
7941;SDS011;4016;50.758;7.150;2022-11-04T17:49:37;4.03;;;3.63;;
7941;SDS011;4016;50.758;7.150;2022-11-04T17:54:38;4.40;;;4.00;;
7941;SDS011;4016;50.758;7.150;2022-11-04T17:59:38;4.77;;;4.27;;
7941;SDS011;4016;50.758;7.150;2022-11-04T18:04:38;5.10;;;4.60;;
7941;SDS011;4016;50.758;7.150;2022-11-04T18:09:39;4.23;;;3.83;;
7941;SDS011;4016;50.758;7.150;2022-11-04T18:14:39;4.03;;;3.67;;
7941;SDS011;4016;50.758;7.150;2022-11-04T18:19:39;10.27;;;6.63;;
7941;SDS011;4016;50.758;7.150;2022-11-04T18:24:40;8.47;;;5.60;;
7941;SDS011;4016;50.758;7.150;2022-11-04T18:29:40;5.90;;;5.30;;
7941;SDS011;4016;50.758;7.150;2022-11-04T18:34:41;5.53;;;4.90;;
7941;SDS011;4016;50.758;7.150;2022-11-04T18:39:41;5.70;;;5.07;;
7941;SDS011;4016;50.758;7.150;2022-11-04T18:44:42;6.30;;;4.00;;
7941;SDS011;4016;50.758;7.150;2022-11-04T18:49:42;4.77;;;4.30;;
7941;SDS011;4016;50.758;7.150;2022-11-04T18:54:43;5.20;;;4.30;;
7941;SDS011;4016;50.758;7.150;2022-11-04T18:59:43;4.67;;;4.13;;
7941;SDS011;4016;50.758;7.150;2022-11-04T19:04:44;6.27;;;4.20;;
7941;SDS011;4016;50.758;7.150;2022-11-04T19:09:45;5.90;;;4.77;;
7941;SDS011;4016;50.758;7.150;2022-11-04T19:14:45;8.83;;;4.53;;
7941;SDS011;4016;50.758;7.150;2022-11-04T19:19:46;5.63;;;5.07;;
7941;SDS011;4016;50.758;7.150;2022-11-04T19:24:46;5.77;;;4.67;;
7941;SDS011;4016;50.758;7.150;2022-11-04T19:29:47;6.77;;;5.53;;
7941;SDS011;4016;50.758;7.150;2022-11-04T19:34:47;6.43;;;5.83;;
7941;SDS011;4016;50.758;7.150;2022-11-04T19:39:48;7.77;;;5.27;;
7941;SDS011;4016;50.758;7.150;2022-11-04T19:44:48;6.33;;;5.73;;
7941;SDS011;4016;50.758;7.150;2022-11-04T19:49:49;5.60;;;4.93;;
7941;SDS011;4016;50.758;7.150;2022-11-04T19:54:49;8.77;;;6.20;;
7941;SDS011;4016;50.758;7.150;2022-11-04T19:59:50;8.23;;;5.87;;
7941;SDS011;4016;50.758;7.150;2022-11-04T20:04:51;7.63;;;5.90;;
7941;SDS011;4016;50.758;7.150;2022-11-04T20:09:52;6.00;;;5.40;;
7941;SDS011;4016;50.758;7.150;2022-11-04T20:14:53;7.50;;;6.03;;
7941;SDS011;4016;50.758;7.150;2022-11-04T20:19:54;8.93;;;6.10;;
7941;SDS011;4016;50.758;7.150;2022-11-04T20:24:55;6.17;;;5.50;;
7941;SDS011;4016;50.758;7.150;2022-11-04T20:29:55;6.63;;;5.83;;
7941;SDS011;4016;50.758;7.150;2022-11-04T20:34:55;7.43;;;5.93;;
7941;SDS011;4016;50.758;7.150;2022-11-04T20:39:56;6.67;;;5.90;;
7941;SDS011;4016;50.758;7.150;2022-11-04T20:44:56;7.57;;;6.70;;
7941;SDS011;4016;50.758;7.150;2022-11-04T20:49:57;7.60;;;6.53;;
7941;SDS011;4016;50.758;7.150;2022-11-04T20:54:57;8.13;;;6.10;;
7941;SDS011;4016;50.758;7.150;2022-11-04T20:59:58;6.67;;;5.97;;
7941;SDS011;4016;50.758;7.150;2022-11-04T21:04:58;9.13;;;6.73;;
7941;SDS011;4016;50.758;7.150;2022-11-04T21:09:58;10.80;;;7.40;;
7941;SDS011;4016;50.758;7.150;2022-11-04T21:14:59;10.43;;;7.63;;
7941;SDS011;4016;50.758;7.150;2022-11-04T21:19:59;10.53;;;6.77;;
7941;SDS011;4016;50.758;7.150;2022-11-04T21:24:59;11.20;;;8.27;;
7941;SDS011;4016;50.758;7.150;2022-11-04T21:30:00;7.50;;;6.07;;
7941;SDS011;4016;50.758;7.150;2022-11-04T21:35:00;7.73;;;6.33;;
7941;SDS011;4016;50.758;7.150;2022-11-04T21:40:00;8.37;;;6.57;;
7941;SDS011;4016;50.758;7.150;2022-11-04T21:45:01;7.77;;;6.30;;
7941;SDS011;4016;50.758;7.150;2022-11-04T21:50:01;9.77;;;6.60;;
7941;SDS011;4016;50.758;7.150;2022-11-04T21:55:02;9.73;;;7.23;;
7941;SDS011;4016;50.758;7.150;2022-11-04T22:00:06;8.07;;;6.40;;
7941;SDS011;4016;50.758;7.150;2022-11-04T22:05:11;9.03;;;6.67;;
7941;SDS011;4016;50.758;7.150;2022-11-04T22:10:13;7.67;;;6.37;;
7941;SDS011;4016;50.758;7.150;2022-11-04T22:15:13;8.00;;;6.23;;
7941;SDS011;4016;50.758;7.150;2022-11-04T22:20:13;6.60;;;5.77;;
7941;SDS011;4016;50.758;7.150;2022-11-04T22:25:14;7.40;;;6.70;;
7941;SDS011;4016;50.758;7.150;2022-11-04T22:30:14;9.00;;;6.83;;
7941;SDS011;4016;50.758;7.150;2022-11-04T22:35:15;10.53;;;7.30;;
7941;SDS011;4016;50.758;7.150;2022-11-04T22:40:15;9.13;;;7.67;;
7941;SDS011;4016;50.758;7.150;2022-11-04T22:45:16;10.17;;;7.70;;
7941;SDS011;4016;50.758;7.150;2022-11-04T22:50:17;14.73;;;9.03;;
7941;SDS011;4016;50.758;7.150;2022-11-04T22:55:17;12.83;;;9.73;;
7941;SDS011;4016;50.758;7.150;2022-11-04T23:00:18;15.30;;;11.00;;
7941;SDS011;4016;50.758;7.150;2022-11-04T23:05:18;14.37;;;10.47;;
7941;SDS011;4016;50.758;7.150;2022-11-04T23:10:19;14.70;;;10.37;;
7941;SDS011;4016;50.758;7.150;2022-11-04T23:15:38;15.60;;;11.40;;
7941;SDS011;4016;50.758;7.150;2022-11-04T23:20:57;14.03;;;9.13;;
7941;SDS011;4016;50.758;7.150;2022-11-04T23:26:16;15.60;;;8.80;;
7941;SDS011;4016;50.758;7.150;2022-11-04T23:31:16;13.67;;;9.80;;
7941;SDS011;4016;50.758;7.150;2022-11-04T23:36:17;15.00;;;9.83;;
7941;SDS011;4016;50.758;7.150;2022-11-04T23:41:35;16.87;;;10.17;;
7941;SDS011;4016;50.758;7.150;2022-11-04T23:46:54;17.73;;;11.00;;
7941;SDS011;4016;50.758;7.150;2022-11-04T23:52:13;15.23;;;9.70;;
7941;SDS011;4016;50.758;7.150;2022-11-04T23:57:32;13.00;;;9.93;;
